MSC Levina — 3FJR8 — position and weather

sailwx.info

Track history (hours):
 
Tides and Currents Weather Stations Pressure Air Temp Water Temp Dewpoint Dewpoint Depression Visibility Wind Speed Wind Dir Waves Ship Positions

MSC Levina

Last reported at 2016-Aug-27 14:12 UTC. Time now 2016-Aug-31 14:23 UTC.
Position N 01°16' E 104°11'.

Length 227.6 m; beam 32.2 m; draft 12.1 m.

Type: Ship (hazmat cat A). MMSI: 355609000.

Date/timePositionNaut miles runAvg speedWind from/ knotsBaromVisibWave heightAir tempDewpointWater temp
2016-Aug-27 14:12N 01°16' E 104°11'1217.9
2016-Aug-27 13:33N 01°14' E 103°59'1312.5
2016-Aug-27 12:33N 01°14' E 103°47'2 2.0
2016-Aug-27 11:32N 01°16' E 103°46'0 0.0
2016-Aug-27 10:32N 01°16' E 103°46'0 0.0
2016-Aug-27 09:32N 01°16' E 103°46'0 0.0
2016-Aug-27 08:26N 01°16' E 103°46'0 0.1
2016-Aug-27 07:26N 01°16' E 103°46'0 0.0
2016-Aug-27 06:32N 01°16' E 103°46'0 0.0
2016-Aug-27 04:32N 01°16' E 103°46'0 0.1
2016-Aug-27 03:32N 01°16' E 103°46'0 0.0
2016-Aug-27 02:32N 01°16' E 103°46'0 0.1
2016-Aug-27 01:32N 01°16' E 103°46'0 0.0
2016-Aug-27 00:20N 01°16' E 103°46'0 0.0
2016-Aug-26 23:32N 01°16' E 103°46'0 0.1
2016-Aug-26 22:32N 01°16' E 103°46'0 0.1
2016-Aug-26 21:32N 01°16' E 103°46'0 0.0
2016-Aug-26 10:32N 01°16' E 103°46'0 0.0
2016-Aug-26 09:32N 01°16' E 103°46'0 0.0
2016-Aug-26 08:32N 01°16' E 103°46'0 0.0
2016-Aug-26 07:32N 01°16' E 103°46'0 0.1
2016-Aug-26 06:32N 01°16' E 103°46'0 0.0
2016-Aug-26 04:26N 01°16' E 103°46'0 0.0
2016-Aug-26 03:26N 01°16' E 103°46'0 0.3
2016-Aug-26 02:33N 01°16' E 103°46'7 7.1
2016-Aug-26 01:33N 01°13' E 103°53'7 6.7
2016-Aug-26 00:33N 01°15' E 103°59'6 6.0
2016-Aug-25 23:33N 01°16' E 104°05'  
2016-Aug-20 18:24N 01°15' E 104°07'1214.3
2016-Aug-20 17:34N 01°13' E 103°55'5 4.1
2016-Aug-20 16:16N 01°12' E 103°50'6 5.8
2016-Aug-20 15:19N 01°16' E 103°46'0 0.1
2016-Aug-20 13:22N 01°16' E 103°46'0 0.0
2016-Aug-20 11:22N 01°16' E 103°46'0 0.0
2016-Aug-20 10:31N 01°16' E 103°46'0 0.1
2016-Aug-20 09:25N 01°16' E 103°46'0 0.0
2016-Aug-20 06:19N 01°16' E 103°46'0 0.0
2016-Aug-20 05:31N 01°16' E 103°46'0 0.1
2016-Aug-20 04:31N 01°16' E 103°46'0 0.0
2016-Aug-20 01:31N 01°16' E 103°46'0 0.0
2016-Aug-19 18:10N 01°16' E 103°46'0 0.0
2016-Aug-19 17:31N 01°16' E 103°46'0 0.0
2016-Aug-19 15:25N 01°16' E 103°46'0 0.1
2016-Aug-19 14:25N 01°16' E 103°46'0 0.1
2016-Aug-19 13:33N 01°16' E 103°46'6 6.3
2016-Aug-19 12:32N 01°13' E 103°52'4 4.3
2016-Aug-19 11:33N 01°14' E 103°56'7 7.2
2016-Aug-19 10:33N 01°16' E 104°03'9 7.6
2016-Aug-19 09:18N 01°17' E 104°12'  
Track history (hours):
 
Tides and Currents Weather Stations Pressure Air Temp Water Temp Dewpoint Dewpoint Depression Visibility Wind Speed Wind Dir Waves Ship Positions

MSC Levina

Last reported at 2016-Aug-27 14:12 UTC. Time now 2016-Aug-31 14:23 UTC.
Position N 01°16' E 104°11'.

Length 227.6 m; beam 32.2 m; draft 12.1 m.

Type: Ship (hazmat cat A). MMSI: 355609000.

Date/timePositionNaut miles runAvg speedWind from/ knotsBaromVisibWave heightAir tempDewpointWater temp
2016-Aug-27 14:12N 01°16' E 104°11'1217.9
2016-Aug-27 13:33N 01°14' E 103°59'1312.5
2016-Aug-27 12:33N 01°14' E 103°47'2 2.0
2016-Aug-27 11:32N 01°16' E 103°46'0 0.0
2016-Aug-27 10:32N 01°16' E 103°46'0 0.0
2016-Aug-27 09:32N 01°16' E 103°46'0 0.0
2016-Aug-27 08:26N 01°16' E 103°46'0 0.1
2016-Aug-27 07:26N 01°16' E 103°46'0 0.0
2016-Aug-27 06:32N 01°16' E 103°46'0 0.0
2016-Aug-27 04:32N 01°16' E 103°46'0 0.1
2016-Aug-27 03:32N 01°16' E 103°46'0 0.0
2016-Aug-27 02:32N 01°16' E 103°46'0 0.1
2016-Aug-27 01:32N 01°16' E 103°46'0 0.0
2016-Aug-27 00:20N 01°16' E 103°46'0 0.0
2016-Aug-26 23:32N 01°16' E 103°46'0 0.1
2016-Aug-26 22:32N 01°16' E 103°46'0 0.1
2016-Aug-26 21:32N 01°16' E 103°46'0 0.0
2016-Aug-26 10:32N 01°16' E 103°46'0 0.0
2016-Aug-26 09:32N 01°16' E 103°46'0 0.0
2016-Aug-26 08:32N 01°16' E 103°46'0 0.0
2016-Aug-26 07:32N 01°16' E 103°46'0 0.1
2016-Aug-26 06:32N 01°16' E 103°46'0 0.0
2016-Aug-26 04:26N 01°16' E 103°46'0 0.0
2016-Aug-26 03:26N 01°16' E 103°46'0 0.3
2016-Aug-26 02:33N 01°16' E 103°46'7 7.1
2016-Aug-26 01:33N 01°13' E 103°53'7 6.7
2016-Aug-26 00:33N 01°15' E 103°59'6 6.0
2016-Aug-25 23:33N 01°16' E 104°05'  
2016-Aug-20 18:24N 01°15' E 104°07'1214.3
2016-Aug-20 17:34N 01°13' E 103°55'5 4.1
2016-Aug-20 16:16N 01°12' E 103°50'6 5.8
2016-Aug-20 15:19N 01°16' E 103°46'0 0.1
2016-Aug-20 13:22N 01°16' E 103°46'0 0.0
2016-Aug-20 11:22N 01°16' E 103°46'0 0.0
2016-Aug-20 10:31N 01°16' E 103°46'0 0.1
2016-Aug-20 09:25N 01°16' E 103°46'0 0.0
2016-Aug-20 06:19N 01°16' E 103°46'0 0.0
2016-Aug-20 05:31N 01°16' E 103°46'0 0.1
2016-Aug-20 04:31N 01°16' E 103°46'0 0.0
2016-Aug-20 01:31N 01°16' E 103°46'0 0.0
2016-Aug-19 18:10N 01°16' E 103°46'0 0.0
2016-Aug-19 17:31N 01°16' E 103°46'0 0.0
2016-Aug-19 15:25N 01°16' E 103°46'0 0.1
2016-Aug-19 14:25N 01°16' E 103°46'0 0.1
2016-Aug-19 13:33N 01°16' E 103°46'6 6.3
2016-Aug-19 12:32N 01°13' E 103°52'4 4.3
2016-Aug-19 11:33N 01°14' E 103°56'7 7.2
2016-Aug-19 10:33N 01°16' E 104°03'9 7.6
2016-Aug-19 09:18N 01°17' E 104°12'  

Dump ship's entire track history